createdAt,value
2019-05-14T00:00:52.410Z,1032.89
2019-05-14T00:01:51.767Z,1032.92
2019-05-14T00:02:52.158Z,1032.80
2019-05-14T00:03:51.796Z,1032.87
2019-05-14T00:04:51.736Z,1032.88
2019-05-14T00:05:51.946Z,1032.88
2019-05-14T00:06:52.024Z,1032.92
2019-05-14T00:07:52.229Z,1032.91
2019-05-14T00:08:52.314Z,1032.95
2019-05-14T00:09:52.017Z,1032.94
2019-05-14T00:10:52.161Z,1032.90
2019-05-14T00:11:51.661Z,1032.93
2019-05-14T00:12:51.651Z,1032.91
2019-05-14T00:13:52.161Z,1032.93
2019-05-14T00:14:51.809Z,1032.94
2019-05-14T00:15:52.175Z,1032.91
2019-05-14T00:16:51.606Z,1033.00
2019-05-14T00:17:52.265Z,1032.99
2019-05-14T00:18:51.587Z,1032.94
2019-05-14T00:20:05.831Z,1033.02
2019-05-14T00:20:52.600Z,1033.01
2019-05-14T00:21:51.554Z,1032.96
2019-05-14T00:22:52.215Z,1032.96
2019-05-14T00:23:51.567Z,1032.94
2019-05-14T00:24:52.116Z,1032.98
2019-05-14T00:25:52.293Z,1032.94
2019-05-14T00:26:51.793Z,1033.01
2019-05-14T00:27:51.861Z,1033.00
2019-05-14T00:28:51.477Z,1032.93
2019-05-14T00:29:51.926Z,1032.96
2019-05-14T00:30:52.430Z,1032.94
2019-05-14T00:31:51.742Z,1032.91
2019-05-14T00:32:52.022Z,1032.95
2019-05-14T00:33:51.463Z,1032.92
2019-05-14T00:34:51.783Z,1032.96
2019-05-14T00:35:51.639Z,1032.88
2019-05-14T00:36:52.495Z,1032.92
2019-05-14T00:37:52.094Z,1032.87
2019-05-14T00:38:51.518Z,1032.87
2019-05-14T00:39:52.066Z,1032.87
2019-05-14T00:40:51.570Z,1032.85
2019-05-14T00:41:51.437Z,1032.87
2019-05-14T00:42:53.241Z,1032.86
2019-05-14T00:43:51.566Z,1032.84
2019-05-14T00:44:56.946Z,1032.80
2019-05-14T00:45:52.291Z,1032.82
2019-05-14T00:46:51.792Z,1032.81
2019-05-14T00:47:52.480Z,1032.84
2019-05-14T00:48:51.640Z,1032.83
2019-05-14T00:49:51.910Z,1032.81
2019-05-14T00:50:51.802Z,1032.79
2019-05-14T00:51:51.994Z,1032.84
2019-05-14T00:52:51.784Z,1032.80
2019-05-14T00:53:51.697Z,1032.77
2019-05-14T00:54:52.217Z,1032.79
2019-05-14T00:55:51.778Z,1032.81
2019-05-14T00:56:52.145Z,1032.79
2019-05-14T00:57:52.198Z,1032.76
2019-05-14T00:58:52.187Z,1032.79
2019-05-14T00:59:52.189Z,1032.75
2019-05-14T01:00:52.577Z,1032.76
2019-05-14T01:01:51.600Z,1032.73
2019-05-14T01:02:51.768Z,1032.76
2019-05-14T01:03:52.064Z,1032.68
2019-05-14T01:04:51.576Z,1032.72
2019-05-14T01:05:52.147Z,1032.72
2019-05-14T01:06:51.274Z,1032.73
2019-05-14T01:07:51.516Z,1032.72
2019-05-14T01:08:51.844Z,1032.70
2019-05-14T01:09:52.346Z,1032.72
2019-05-14T01:10:51.368Z,1032.67
2019-05-14T01:11:51.397Z,1032.66
2019-05-14T01:12:52.027Z,1032.73
2019-05-14T01:13:52.183Z,1032.68
2019-05-14T01:14:52.846Z,1032.70
2019-05-14T01:15:52.318Z,1032.67
2019-05-14T01:16:51.500Z,1032.70
2019-05-14T01:17:51.629Z,1032.70
2019-05-14T01:18:51.346Z,1032.63
2019-05-14T01:19:51.437Z,1032.64
2019-05-14T01:20:51.906Z,1032.63
2019-05-14T01:21:51.179Z,1032.66
2019-05-14T01:22:51.573Z,1032.61
2019-05-14T01:23:51.385Z,1032.61
2019-05-14T01:24:52.237Z,1032.58
2019-05-14T01:25:51.683Z,1032.58
2019-05-14T01:26:52.233Z,1032.58
2019-05-14T01:27:51.814Z,1032.58
2019-05-14T01:28:51.358Z,1032.58
2019-05-14T01:29:51.384Z,1032.55
2019-05-14T01:30:51.847Z,1032.53
2019-05-14T01:31:51.981Z,1032.50
2019-05-14T01:32:51.310Z,1032.50
2019-05-14T01:33:51.515Z,1032.45
2019-05-14T01:34:52.267Z,1032.46
2019-05-14T01:35:51.390Z,1032.41
2019-05-14T01:36:52.821Z,1032.44
2019-05-14T01:37:52.173Z,1032.40
2019-05-14T01:38:51.332Z,1032.39
2019-05-14T01:39:51.982Z,1032.41
2019-05-14T01:40:52.409Z,1032.36
2019-05-14T01:41:51.655Z,1032.42
2019-05-14T01:42:52.265Z,1032.38
2019-05-14T01:43:51.277Z,1032.43
2019-05-14T01:44:52.007Z,1032.37
2019-05-14T01:45:52.358Z,1032.34
2019-05-14T01:46:51.267Z,1032.34
2019-05-14T01:47:52.064Z,1032.28
2019-05-14T01:48:52.143Z,1032.34
2019-05-14T01:49:51.577Z,1032.31
2019-05-14T01:50:52.068Z,1032.29
2019-05-14T01:51:51.203Z,1032.33
2019-05-14T01:52:52.099Z,1032.33
2019-05-14T01:53:52.100Z,1032.31
2019-05-14T01:54:51.554Z,1032.35
2019-05-14T01:55:51.997Z,1032.32
2019-05-14T01:56:51.495Z,1032.29
2019-05-14T01:57:51.831Z,1032.26
2019-05-14T01:58:52.263Z,1032.24
2019-05-14T01:59:51.626Z,1032.19
2019-05-14T02:00:52.361Z,1032.24
2019-05-14T02:01:51.774Z,1032.25
2019-05-14T02:02:52.496Z,1032.18
2019-05-14T02:03:51.751Z,1032.23
2019-05-14T02:04:51.340Z,1032.17
2019-05-14T02:05:52.043Z,1032.19
2019-05-14T02:06:51.488Z,1032.17
2019-05-14T02:07:52.427Z,1032.11
2019-05-14T02:08:51.461Z,1032.15
2019-05-14T02:09:51.762Z,1032.14
2019-05-14T02:10:52.429Z,1032.19
2019-05-14T02:11:51.854Z,1032.15
2019-05-14T02:12:51.519Z,1032.18
2019-05-14T02:13:51.888Z,1032.17
2019-05-14T02:14:51.213Z,1032.18
2019-05-14T02:15:52.008Z,1032.19
2019-05-14T02:16:51.202Z,1032.14
2019-05-14T02:17:51.894Z,1032.20
2019-05-14T02:18:52.273Z,1032.19
2019-05-14T02:19:51.459Z,1032.21
2019-05-14T02:20:52.162Z,1032.20
2019-05-14T02:21:51.455Z,1032.21
2019-05-14T02:22:52.285Z,1032.26
2019-05-14T02:23:51.393Z,1032.20
2019-05-14T02:24:51.955Z,1032.24
2019-05-14T02:25:51.882Z,1032.20
2019-05-14T02:26:51.431Z,1032.23
2019-05-14T02:27:51.934Z,1032.27
2019-05-14T02:28:51.363Z,1032.24
2019-05-14T02:29:51.922Z,1032.25
2019-05-14T02:30:57.518Z,1032.29
2019-05-14T02:31:51.185Z,1032.31
2019-05-14T02:32:50.186Z,1032.25
2019-05-14T02:33:50.731Z,1032.27
2019-05-14T02:34:50.350Z,1032.31
2019-05-14T02:35:50.144Z,1032.31
2019-05-14T02:36:50.111Z,1032.29
2019-05-14T02:37:50.614Z,1032.32
2019-05-14T02:38:50.090Z,1032.27
2019-05-14T02:39:50.463Z,1032.31
2019-05-14T02:40:50.070Z,1032.35
2019-05-14T02:41:50.161Z,1032.35
2019-05-14T02:42:50.132Z,1032.36
2019-05-14T02:43:50.557Z,1032.32
2019-05-14T02:44:50.027Z,1032.35
2019-05-14T02:46:02.046Z,1032.40
2019-05-14T02:46:51.006Z,1032.35
2019-05-14T02:47:50.534Z,1032.36
2019-05-14T02:48:49.987Z,1032.39
2019-05-14T02:49:50.425Z,1032.39
2019-05-14T02:50:49.991Z,1032.36
2019-05-14T02:51:50.572Z,1032.35
2019-05-14T02:52:50.038Z,1032.38
2019-05-14T02:53:50.056Z,1032.36
2019-05-14T02:54:49.923Z,1032.36
2019-05-14T02:55:50.105Z,1032.31
2019-05-14T02:56:49.917Z,1032.33
2019-05-14T02:57:50.330Z,1032.28
2019-05-14T02:58:50.186Z,1032.28
2019-05-14T02:59:50.512Z,1032.24
2019-05-14T03:00:49.865Z,1032.27
2019-05-14T03:01:50.520Z,1032.25
2019-05-14T03:02:49.869Z,1032.25
2019-05-14T03:03:49.832Z,1032.24
2019-05-14T03:04:50.194Z,1032.26
2019-05-14T03:05:49.897Z,1032.23
2019-05-14T03:06:50.100Z,1032.23
2019-05-14T03:07:50.286Z,1032.23
2019-05-14T03:08:49.830Z,1032.19
2019-05-14T03:09:50.424Z,1032.16
2019-05-14T03:10:50.591Z,1032.17
2019-05-14T03:11:49.747Z,1032.17
2019-05-14T03:12:50.362Z,1032.12
2019-05-14T03:13:49.837Z,1032.18
2019-05-14T03:14:50.198Z,1032.12
2019-05-14T03:15:50.089Z,1032.13
2019-05-14T03:16:49.961Z,1032.14
2019-05-14T03:17:49.757Z,1032.15
2019-05-14T03:18:50.332Z,1032.07
2019-05-14T03:19:49.879Z,1032.10
2019-05-14T03:20:50.421Z,1032.08
2019-05-14T03:21:50.270Z,1032.06
2019-05-14T03:23:02.576Z,1032.05
2019-05-14T03:23:50.610Z,1032.04
2019-05-14T03:24:50.259Z,1032.02
2019-05-14T03:25:49.696Z,1032.02
2019-05-14T03:26:50.190Z,1032.01
2019-05-14T03:27:49.974Z,1032.01
2019-05-14T03:28:50.041Z,1032.03
2019-05-14T03:29:50.139Z,1031.96
2019-05-14T03:30:52.569Z,1031.97
2019-05-14T03:31:52.600Z,1031.99
2019-05-14T03:32:52.874Z,1031.99
2019-05-14T03:33:52.604Z,1032.03
2019-05-14T03:34:53.227Z,1031.98
2019-05-14T03:35:58.044Z,1031.95
2019-05-14T03:36:52.852Z,1031.98
2019-05-14T03:37:49.989Z,1032.00
2019-05-14T03:38:50.204Z,1032.00
2019-05-14T03:39:49.598Z,1032.02
2019-05-14T03:40:49.762Z,1032.00
2019-05-14T03:41:50.057Z,1032.06
2019-05-14T03:42:49.419Z,1032.05
2019-05-14T03:43:49.793Z,1032.07
2019-05-14T03:44:49.413Z,1032.11
2019-05-14T03:45:49.839Z,1032.06
2019-05-14T03:46:55.233Z,1032.04
2019-05-14T03:47:50.811Z,1032.05
2019-05-14T03:48:49.526Z,1032.05
2019-05-14T03:49:49.988Z,1032.03
2019-05-14T03:50:49.770Z,1032.04
2019-05-14T03:51:49.944Z,1032.04
2019-05-14T03:52:50.035Z,1032.02
2019-05-14T03:54:01.346Z,1032.04
2019-05-14T03:54:50.274Z,1032.02
2019-05-14T03:55:50.531Z,1032.04
2019-05-14T03:56:49.822Z,1032.03
2019-05-14T03:57:50.009Z,1032.01
2019-05-14T03:58:49.568Z,1031.98
2019-05-14T03:59:50.172Z,1031.97
2019-05-14T04:00:50.309Z,1031.94
2019-05-14T04:01:51.085Z,1031.90
2019-05-14T04:02:49.278Z,1031.91
2019-05-14T04:03:50.319Z,1031.89
2019-05-14T04:04:50.322Z,1031.89
2019-05-14T04:05:49.868Z,1031.87
2019-05-14T04:06:49.875Z,1031.86
2019-05-14T04:07:50.326Z,1031.90
2019-05-14T04:08:49.828Z,1031.96
2019-05-14T04:09:49.662Z,1031.92
2019-05-14T04:10:53.663Z,1031.95
2019-05-14T04:11:50.355Z,1031.96
2019-05-14T04:12:49.448Z,1031.92
2019-05-14T04:13:49.808Z,1031.93
2019-05-14T04:14:50.242Z,1032.00
2019-05-14T04:15:49.933Z,1031.98
2019-05-14T04:17:01.437Z,1031.92
2019-05-14T04:17:50.471Z,1031.91
2019-05-14T04:18:50.464Z,1031.88
2019-05-14T04:19:49.884Z,1031.92
2019-05-14T04:20:50.023Z,1031.89
2019-05-14T04:21:49.268Z,1031.93
2019-05-14T04:22:49.975Z,1031.96
2019-05-14T04:23:51.031Z,1031.93
2019-05-14T04:24:49.889Z,1031.94
2019-05-14T04:25:49.871Z,1032.00
2019-05-14T04:26:58.158Z,1032.02
2019-05-14T04:27:49.921Z,1032.00
2019-05-14T04:28:49.820Z,1032.02
2019-05-14T04:29:49.809Z,1032.04
2019-05-14T04:30:49.409Z,1032.07
2019-05-14T04:31:50.203Z,1032.12
2019-05-14T04:32:50.591Z,1032.11
2019-05-14T04:33:50.035Z,1032.08
2019-05-14T04:34:49.886Z,1032.11
2019-05-14T04:35:49.272Z,1032.09
2019-05-14T04:36:50.263Z,1032.12
2019-05-14T04:37:49.614Z,1032.13
2019-05-14T04:38:54.111Z,1032.14
2019-05-14T04:39:50.597Z,1032.15
2019-05-14T04:40:49.488Z,1032.08
2019-05-14T04:41:49.740Z,1032.08
2019-05-14T04:42:50.376Z,1032.08
2019-05-14T04:43:50.031Z,1032.12
2019-05-14T04:44:50.252Z,1032.11
2019-05-14T04:45:49.719Z,1032.08
2019-05-14T04:46:49.538Z,1032.13
2019-05-14T04:47:49.779Z,1032.09
2019-05-14T04:48:50.610Z,1032.14
2019-05-14T04:49:50.511Z,1032.14
2019-05-14T04:50:49.679Z,1032.17
2019-05-14T04:51:50.213Z,1032.19
2019-05-14T04:52:49.590Z,1032.19
2019-05-14T04:53:49.870Z,1032.15
2019-05-14T04:54:49.967Z,1032.18
2019-05-14T04:55:49.560Z,1032.11
2019-05-14T04:56:50.851Z,1032.12
2019-05-14T04:57:50.051Z,1032.10
2019-05-14T04:58:49.645Z,1032.16
2019-05-14T04:59:49.363Z,1032.11
2019-05-14T05:00:49.979Z,1032.11
2019-05-14T05:01:49.530Z,1032.08
2019-05-14T05:02:49.748Z,1032.13
2019-05-14T05:03:50.424Z,1032.05
2019-05-14T05:04:50.772Z,1032.07
2019-05-14T05:05:50.034Z,1032.09
2019-05-14T05:06:49.949Z,1032.10
2019-05-14T05:07:49.389Z,1032.07
2019-05-14T05:08:49.909Z,1032.03
2019-05-14T05:09:50.216Z,1032.09
2019-05-14T05:10:49.496Z,1032.12
2019-05-14T05:11:49.800Z,1032.08
2019-05-14T05:12:49.254Z,1032.13
2019-05-14T05:13:48.788Z,1032.15
2019-05-14T05:14:49.279Z,1032.16
2019-05-14T05:15:48.804Z,1032.19
2019-05-14T05:16:49.115Z,1032.19
2019-05-14T05:17:52.616Z,1032.20
2019-05-14T05:18:49.241Z,1032.18
2019-05-14T05:19:51.471Z,1032.15
2019-05-14T05:20:50.589Z,1032.20
2019-05-14T05:21:48.349Z,1032.20
2019-05-14T05:22:48.654Z,1032.16
2019-05-14T05:23:49.305Z,1032.21
2019-05-14T05:24:48.592Z,1032.12
2019-05-14T05:25:49.059Z,1032.18
2019-05-14T05:26:48.660Z,1032.21
2019-05-14T05:27:48.813Z,1032.23
2019-05-14T05:29:02.864Z,1032.28
2019-05-14T05:29:49.263Z,1032.25
2019-05-14T05:30:49.083Z,1032.19
2019-05-14T05:31:48.877Z,1032.23
2019-05-14T05:32:49.448Z,1032.23
2019-05-14T05:33:48.954Z,1032.17
2019-05-14T05:34:48.433Z,1032.24
2019-05-14T05:35:48.675Z,1032.23
2019-05-14T05:36:48.655Z,1032.25
2019-05-14T05:37:49.095Z,1032.20
2019-05-14T05:38:49.101Z,1032.18
2019-05-14T05:39:49.123Z,1032.17
2019-05-14T05:40:48.661Z,1032.22
2019-05-14T05:41:49.184Z,1032.21
2019-05-14T05:42:49.031Z,1032.15
2019-05-14T05:43:48.492Z,1032.25
2019-05-14T05:44:48.460Z,1032.14
2019-05-14T05:45:48.654Z,1032.12
2019-05-14T05:46:49.452Z,1032.17
2019-05-14T05:47:57.812Z,1032.10
2019-05-14T05:48:49.046Z,1032.14
2019-05-14T05:49:48.752Z,1032.15
2019-05-14T05:50:48.579Z,1032.13
2019-05-14T05:51:48.475Z,1032.09
2019-05-14T05:52:49.838Z,1032.10
2019-05-14T05:53:48.492Z,1032.12
2019-05-14T05:54:48.946Z,1032.10
2019-05-14T05:55:48.567Z,1032.11
2019-05-14T05:56:48.246Z,1032.10
2019-05-14T05:57:49.273Z,1032.17
2019-05-14T05:58:48.947Z,1032.15
2019-05-14T05:59:48.596Z,1032.13
2019-05-14T06:00:49.782Z,1032.16
2019-05-14T06:01:50.275Z,1032.17
2019-05-14T06:02:48.912Z,1032.14
2019-05-14T06:03:49.176Z,1032.17
2019-05-14T06:04:48.123Z,1032.16
2019-05-14T06:05:49.267Z,1032.17
2019-05-14T06:06:48.226Z,1032.20
2019-05-14T06:07:48.346Z,1032.16
2019-05-14T06:08:49.142Z,1032.15
2019-05-14T06:09:48.426Z,1032.14
2019-05-14T06:10:49.023Z,1032.04
2019-05-14T06:11:48.756Z,1032.07
2019-05-14T06:12:49.065Z,1032.04
2019-05-14T06:13:48.487Z,1032.03
2019-05-14T06:14:48.707Z,1032.02
2019-05-14T06:15:51.453Z,1032.03
2019-05-14T06:16:48.918Z,1031.98
2019-05-14T06:17:49.256Z,1031.93
2019-05-14T06:18:48.361Z,1032.01
2019-05-14T06:19:48.666Z,1032.02
2019-05-14T06:20:49.395Z,1032.06
2019-05-14T06:21:49.089Z,1032.06
2019-05-14T06:22:48.977Z,1032.14
2019-05-14T06:23:48.962Z,1032.04
2019-05-14T06:24:48.523Z,1032.17
2019-05-14T06:25:49.086Z,1032.26
2019-05-14T06:26:48.966Z,1032.37
2019-05-14T06:27:48.567Z,1032.42
2019-05-14T06:28:48.828Z,1032.39
2019-05-14T06:29:48.965Z,1032.46
2019-05-14T06:30:48.378Z,1032.48
2019-05-14T06:31:49.527Z,1032.54
2019-05-14T06:32:48.778Z,1032.51
2019-05-14T06:33:48.598Z,1032.44
2019-05-14T06:34:48.920Z,1032.45
2019-05-14T06:35:48.581Z,1032.37
2019-05-14T06:36:48.532Z,1032.41
2019-05-14T06:37:49.030Z,1032.54
2019-05-14T06:38:49.471Z,1032.47
2019-05-14T06:39:48.442Z,1032.42
2019-05-14T06:40:49.020Z,1032.42
2019-05-14T06:41:48.983Z,1032.33
2019-05-14T06:42:48.597Z,1032.45
2019-05-14T06:43:48.709Z,1032.41
2019-05-14T06:44:49.296Z,1032.44
2019-05-14T06:45:49.509Z,1032.37
2019-05-14T06:46:48.705Z,1032.24
2019-05-14T06:47:48.735Z,1032.25
2019-05-14T06:48:48.558Z,1032.13
2019-05-14T06:49:48.775Z,1032.10
2019-05-14T06:50:50.211Z,1032.10
2019-05-14T06:51:48.946Z,1032.22
2019-05-14T06:52:49.188Z,1032.17
2019-05-14T06:53:49.596Z,1032.12
2019-05-14T06:54:49.688Z,1032.14
2019-05-14T06:55:48.381Z,1032.14
2019-05-14T06:56:48.834Z,1032.17
2019-05-14T06:57:48.018Z,1032.18
2019-05-14T06:58:49.055Z,1032.16
2019-05-14T06:59:48.388Z,1032.11
2019-05-14T07:00:49.331Z,1032.13
2019-05-14T07:01:48.944Z,1032.13
2019-05-14T07:02:49.141Z,1032.09
2019-05-14T07:03:48.901Z,1032.11
2019-05-14T07:04:48.438Z,1032.11
2019-05-14T07:05:49.275Z,1032.03
2019-05-14T07:06:48.534Z,1032.00
2019-05-14T07:07:49.375Z,1032.05
2019-05-14T07:08:48.637Z,1032.01
2019-05-14T07:09:48.803Z,1031.97
2019-05-14T07:10:48.589Z,1031.96
2019-05-14T07:11:49.157Z,1031.99
2019-05-14T07:12:49.711Z,1032.03
2019-05-14T07:13:49.068Z,1032.01
2019-05-14T07:14:48.205Z,1031.96
2019-05-14T07:15:49.003Z,1031.96
2019-05-14T07:16:48.507Z,1031.98
2019-05-14T07:17:48.860Z,1032.00
2019-05-14T07:18:53.016Z,1031.98
2019-05-14T07:19:49.070Z,1031.99
2019-05-14T07:20:48.502Z,1031.98
2019-05-14T07:21:49.218Z,1032.00
2019-05-14T07:22:48.364Z,1032.08
2019-05-14T07:23:49.015Z,1032.05
2019-05-14T07:24:49.493Z,1032.05
2019-05-14T07:25:48.304Z,1032.05
2019-05-14T07:26:49.425Z,1032.06
2019-05-14T07:27:49.016Z,1032.07
2019-05-14T07:28:48.801Z,1032.05
2019-05-14T07:29:49.244Z,1032.05
2019-05-14T07:30:48.548Z,1032.07
2019-05-14T07:31:48.966Z,1032.07
2019-05-14T07:32:48.475Z,1032.03
2019-05-14T07:33:49.419Z,1032.13
2019-05-14T07:34:48.180Z,1032.12
2019-05-14T07:35:48.819Z,1032.10
2019-05-14T07:36:49.113Z,1032.09
2019-05-14T07:37:48.844Z,1032.12
2019-05-14T07:38:48.961Z,1032.11
2019-05-14T07:39:48.675Z,1032.12
2019-05-14T07:40:49.223Z,1032.08
2019-05-14T07:41:48.353Z,1032.02
2019-05-14T07:42:48.718Z,1032.10
2019-05-14T07:43:48.319Z,1032.04
2019-05-14T07:44:48.499Z,1032.09
2019-05-14T07:45:49.110Z,1032.08
2019-05-14T07:46:48.347Z,1032.09
2019-05-14T07:47:49.183Z,1032.09
2019-05-14T07:49:03.921Z,1032.15
2019-05-14T07:49:48.979Z,1032.18
2019-05-14T07:50:51.239Z,1032.15
2019-05-14T07:51:48.165Z,1032.12
2019-05-14T07:52:49.561Z,1032.09
2019-05-14T07:53:48.818Z,1032.07
2019-05-14T07:54:48.123Z,1032.07
2019-05-14T07:55:49.088Z,1032.07
2019-05-14T07:56:49.798Z,1032.08
2019-05-14T07:57:48.104Z,1032.07
2019-05-14T07:58:48.856Z,1032.06
2019-05-14T07:59:48.430Z,1032.12
2019-05-14T08:00:48.958Z,1032.09
2019-05-14T08:01:48.943Z,1032.20
2019-05-14T08:02:48.925Z,1032.20
2019-05-14T08:03:48.931Z,1032.15
2019-05-14T08:04:48.615Z,1032.14
2019-05-14T08:05:48.285Z,1032.16
2019-05-14T08:06:48.612Z,1032.11
2019-05-14T08:07:48.104Z,1032.22
2019-05-14T08:08:48.992Z,1032.26
2019-05-14T08:09:47.963Z,1032.20
2019-05-14T08:10:48.619Z,1032.16
2019-05-14T08:11:48.036Z,1032.18
2019-05-14T08:12:48.499Z,1032.08
2019-05-14T08:13:48.697Z,1032.14
2019-05-14T08:15:08.553Z,1032.19
2019-05-14T08:15:49.044Z,1032.17
2019-05-14T08:16:48.741Z,1032.12
2019-05-14T08:17:48.203Z,1032.04
2019-05-14T08:18:48.484Z,1032.08
2019-05-14T08:19:46.424Z,1032.14
2019-05-14T08:20:48.422Z,1032.15
2019-05-14T08:21:48.129Z,1032.03
2019-05-14T08:22:48.833Z,1031.95
2019-05-14T08:23:48.126Z,1031.86
2019-05-14T08:24:48.725Z,1031.93
2019-05-14T08:25:48.162Z,1031.83
2019-05-14T08:26:48.550Z,1031.76
2019-05-14T08:27:48.206Z,1031.65
2019-05-14T08:28:48.629Z,1031.62
2019-05-14T08:29:48.625Z,1031.61
2019-05-14T08:30:46.314Z,1031.56
2019-05-14T08:31:48.619Z,1031.54
2019-05-14T08:32:46.292Z,1031.53
2019-05-14T08:33:48.550Z,1031.51
2019-05-14T08:34:48.010Z,1031.47
2019-05-14T08:35:48.662Z,1031.43
2019-05-14T08:36:48.238Z,1031.45
2019-05-14T08:37:46.233Z,1031.42
2019-05-14T08:38:47.353Z,1031.36
2019-05-14T08:39:48.688Z,1031.41
2019-05-14T08:40:48.655Z,1031.33
2019-05-14T08:41:56.028Z,1031.28
2019-05-14T08:42:49.036Z,1031.34
2019-05-14T08:43:48.671Z,1031.31
2019-05-14T08:44:50.315Z,1031.34
2019-05-14T08:45:48.488Z,1031.42
2019-05-14T08:46:48.161Z,1031.46
2019-05-14T08:47:48.189Z,1031.45
2019-05-14T08:48:46.112Z,1031.42
2019-05-14T08:49:49.984Z,1031.56
2019-05-14T08:50:48.211Z,1031.44
2019-05-14T08:51:46.081Z,1031.51
2019-05-14T08:52:48.169Z,1031.40
2019-05-14T08:53:49.749Z,1031.36
2019-05-14T08:54:46.049Z,1031.43
2019-05-14T08:55:48.459Z,1031.45
2019-05-14T08:56:46.039Z,1031.43
2019-05-14T08:57:48.669Z,1031.39
2019-05-14T08:58:46.011Z,1031.32
2019-05-14T08:59:48.314Z,1031.30
2019-05-14T09:00:48.091Z,1031.36
2019-05-14T09:01:58.511Z,1031.25
2019-05-14T09:02:48.571Z,1031.20
2019-05-14T09:03:48.858Z,1031.26
2019-05-14T09:04:52.646Z,1031.23
2019-05-14T09:05:48.996Z,1031.21
2019-05-14T09:06:45.919Z,1031.21
2019-05-14T09:07:45.908Z,1031.22
2019-05-14T09:08:45.903Z,1031.17
2019-05-14T09:09:45.890Z,1031.13
2019-05-14T09:10:45.877Z,1031.18
2019-05-14T09:11:47.454Z,1031.12
2019-05-14T09:12:45.859Z,1031.13
2019-05-14T09:13:45.844Z,1031.08
2019-05-14T09:14:48.113Z,1031.14
2019-05-14T09:15:45.823Z,1031.10
2019-05-14T09:16:47.677Z,1031.18
2019-05-14T09:17:48.452Z,1031.19
2019-05-14T09:18:45.789Z,1031.25
2019-05-14T09:19:58.823Z,1031.28
2019-05-14T09:20:48.855Z,1031.25
2019-05-14T09:21:45.756Z,1031.26
2019-05-14T09:22:45.746Z,1031.29
2019-05-14T09:23:48.031Z,1031.24
2019-05-14T09:24:45.724Z,1031.23
2019-05-14T09:25:49.315Z,1031.16
2019-05-14T09:26:48.328Z,1031.17
2019-05-14T09:27:45.692Z,1031.17
2019-05-14T09:28:48.001Z,1031.12
2019-05-14T09:29:45.681Z,1031.17
2019-05-14T09:30:45.660Z,1031.18
2019-05-14T09:31:45.658Z,1031.24
2019-05-14T09:32:45.647Z,1031.18
2019-05-14T09:33:45.630Z,1031.18
2019-05-14T09:34:48.478Z,1031.14
2019-05-14T09:35:45.616Z,1031.10
2019-05-14T09:36:45.595Z,1031.05
2019-05-14T09:37:45.585Z,1031.26
2019-05-14T09:38:45.581Z,1031.22
2019-05-14T09:39:45.578Z,1031.21
2019-05-14T09:40:45.557Z,1031.26
2019-05-14T09:41:45.553Z,1031.23
2019-05-14T09:42:45.530Z,1031.20
2019-05-14T09:43:45.518Z,1031.17
2019-05-14T09:44:45.522Z,1031.10
2019-05-14T09:45:45.497Z,1031.07
2019-05-14T09:46:45.487Z,1031.09
2019-05-14T09:47:50.020Z,1031.12
2019-05-14T09:48:48.737Z,1031.12
2019-05-14T09:49:45.456Z,1031.16
2019-05-14T09:50:45.466Z,1031.10
2019-05-14T09:51:45.434Z,1031.08
2019-05-14T09:52:45.423Z,1031.13
2019-05-14T09:53:45.423Z,1031.08
2019-05-14T09:54:45.404Z,1031.09
2019-05-14T09:55:45.391Z,1031.05
2019-05-14T09:56:45.394Z,1030.98
2019-05-14T09:57:45.372Z,1031.04
2019-05-14T09:58:45.361Z,1031.05
2019-05-14T09:59:45.359Z,1031.08
2019-05-14T10:00:45.337Z,1030.96
2019-05-14T10:01:45.329Z,1031.01
2019-05-14T10:02:45.338Z,1030.99
2019-05-14T10:03:45.331Z,1030.97
2019-05-14T10:04:45.295Z,1030.94
2019-05-14T10:05:45.305Z,1030.86
2019-05-14T10:06:45.276Z,1030.92
2019-05-14T10:07:45.269Z,1030.96
2019-05-14T10:08:45.261Z,1030.90
2019-05-14T10:09:45.242Z,1030.83
2019-05-14T10:10:45.233Z,1030.72
2019-05-14T10:11:45.242Z,1030.63
2019-05-14T10:12:55.965Z,1030.64
2019-05-14T10:13:48.230Z,1030.64
2019-05-14T10:14:45.208Z,1030.71
2019-05-14T10:15:45.178Z,1030.73
2019-05-14T10:16:45.168Z,1030.67
2019-05-14T10:17:45.171Z,1030.72
2019-05-14T10:18:45.147Z,1030.64
2019-05-14T10:19:45.143Z,1030.63
2019-05-14T10:20:46.232Z,1030.63
2019-05-14T10:21:45.115Z,1030.58
2019-05-14T10:22:45.102Z,1030.62
2019-05-14T10:23:45.103Z,1030.53
2019-05-14T10:24:45.081Z,1030.56
2019-05-14T10:25:45.070Z,1030.62
2019-05-14T10:26:45.068Z,1030.74
2019-05-14T10:27:45.049Z,1030.82
2019-05-14T10:28:45.038Z,1030.97
2019-05-14T10:29:45.037Z,1030.98
2019-05-14T10:30:45.016Z,1030.59
2019-05-14T10:31:45.005Z,1031.14
2019-05-14T10:32:45.003Z,1031.14
2019-05-14T10:33:44.983Z,1030.93
2019-05-14T10:34:44.974Z,1030.89
2019-05-14T10:35:44.972Z,1031.22
2019-05-14T10:36:44.952Z,1030.83
2019-05-14T10:37:44.941Z,1031.14
2019-05-14T10:38:44.964Z,1030.95
2019-05-14T10:39:44.922Z,1031.17
2019-05-14T10:40:44.910Z,1031.16
2019-05-14T10:41:44.912Z,1031.03
2019-05-14T10:42:44.887Z,1030.96
2019-05-14T10:43:44.876Z,1030.67
2019-05-14T10:44:44.881Z,1030.53
2019-05-14T10:45:44.855Z,1030.47
2019-05-14T10:46:44.844Z,1030.45
2019-05-14T10:47:44.845Z,1030.40
2019-05-14T10:48:44.832Z,1030.37
2019-05-14T10:49:44.813Z,1030.33
2019-05-14T10:50:56.106Z,1030.36
2019-05-14T10:51:47.889Z,1030.28
2019-05-14T10:52:44.780Z,1030.26
2019-05-14T10:53:44.781Z,1030.29
2019-05-14T10:54:55.354Z,1030.22
2019-05-14T10:55:45.748Z,1030.27
2019-05-14T10:56:44.780Z,1030.26
2019-05-14T10:57:44.728Z,1030.32
2019-05-14T10:58:44.717Z,1030.27
2019-05-14T10:59:44.714Z,1030.30
2019-05-14T11:00:44.703Z,1030.28
2019-05-14T11:01:44.684Z,1030.28
2019-05-14T11:02:44.687Z,1030.26
2019-05-14T11:03:44.662Z,1030.34
2019-05-14T11:04:44.650Z,1030.28
2019-05-14T11:05:44.653Z,1030.15
2019-05-14T11:06:44.629Z,1030.20
2019-05-14T11:07:44.617Z,1030.18
2019-05-14T11:08:44.617Z,1030.10
2019-05-14T11:09:44.596Z,1030.09
2019-05-14T11:10:44.590Z,1030.06
2019-05-14T11:11:44.671Z,1030.04
2019-05-14T11:12:44.566Z,1030.10
2019-05-14T11:13:44.553Z,1030.07
2019-05-14T11:14:44.553Z,1030.01
2019-05-14T11:15:44.531Z,1030.02
2019-05-14T11:16:44.522Z,1029.99
2019-05-14T11:17:44.529Z,1029.94
2019-05-14T11:18:44.502Z,1029.97
2019-05-14T11:19:44.490Z,1029.93
2019-05-14T11:20:44.495Z,1029.87
2019-05-14T11:21:44.468Z,1029.86
2019-05-14T11:22:44.460Z,1029.94
2019-05-14T11:23:44.456Z,1029.89
2019-05-14T11:24:44.444Z,1029.84
2019-05-14T11:25:44.426Z,1029.81
2019-05-14T11:26:44.488Z,1029.79
2019-05-14T11:27:44.405Z,1029.79
2019-05-14T11:28:44.399Z,1029.77
2019-05-14T11:29:44.394Z,1029.93
2019-05-14T11:30:44.372Z,1029.87
2019-05-14T11:31:44.363Z,1029.78
2019-05-14T11:32:44.379Z,1029.72
2019-05-14T11:33:44.346Z,1029.70
2019-05-14T11:34:44.332Z,1029.64
2019-05-14T11:35:44.330Z,1029.60
2019-05-14T11:36:44.309Z,1029.60
2019-05-14T11:37:44.310Z,1029.63
2019-05-14T11:38:44.302Z,1029.62
2019-05-14T11:39:44.277Z,1029.61
2019-05-14T11:40:44.267Z,1029.63
2019-05-14T11:41:44.270Z,1029.54
2019-05-14T11:42:44.246Z,1029.49
2019-05-14T11:43:44.237Z,1029.42
2019-05-14T11:44:44.236Z,1029.43
2019-05-14T11:45:44.217Z,1029.49
2019-05-14T11:46:56.284Z,1029.49
2019-05-14T11:47:45.208Z,1029.50
2019-05-14T11:48:44.183Z,1029.48
2019-05-14T11:49:44.173Z,1029.47
2019-05-14T11:50:44.180Z,1029.47
2019-05-14T11:52:01.087Z,1029.52
2019-05-14T11:52:45.140Z,1029.45
2019-05-14T11:53:44.141Z,1029.45
2019-05-14T11:54:44.119Z,1029.48
2019-05-14T11:55:44.108Z,1029.45
2019-05-14T11:56:44.119Z,1029.45
2019-05-14T11:57:44.084Z,1029.46
2019-05-14T11:58:44.073Z,1029.37
2019-05-14T11:59:44.073Z,1029.43
2019-05-14T12:00:44.053Z,1029.51
2019-05-14T12:01:44.040Z,1029.41
2019-05-14T12:02:44.049Z,1029.48
2019-05-14T12:03:44.018Z,1029.49
2019-05-14T12:04:44.008Z,1029.52
2019-05-14T12:05:44.008Z,1029.58